createdAt,value
2022-10-22T00:00:37.248Z,1.20
2022-10-22T00:03:04.131Z,1.00
2022-10-22T00:05:30.655Z,0.90
2022-10-22T00:08:00.679Z,0.90
2022-10-22T00:10:27.291Z,0.90
2022-10-22T00:12:53.840Z,1.15
2022-10-22T00:15:20.386Z,0.65
2022-10-22T00:17:51.609Z,1.08
2022-10-22T00:20:18.183Z,1.00
2022-10-22T00:22:44.718Z,0.95
2022-10-22T00:25:11.409Z,0.90
2022-10-22T00:27:38.450Z,1.00
2022-10-22T00:30:05.791Z,0.70
2022-10-22T00:32:34.247Z,0.80
2022-10-22T00:35:01.032Z,0.90
2022-10-22T00:37:27.589Z,0.85
2022-10-22T00:40:00.718Z,0.90
2022-10-22T00:42:31.756Z,1.20
2022-10-22T00:45:22.940Z,1.40
2022-10-22T00:48:11.715Z,1.40
2022-10-22T00:50:43.731Z,1.60
2022-10-22T00:53:16.956Z,1.15
2022-10-22T00:55:48.506Z,1.25
2022-10-22T00:58:15.622Z,1.23
2022-10-22T01:09:16.015Z,0.88
2022-10-22T01:12:02.794Z,0.68
2022-10-22T01:14:40.875Z,0.70
2022-10-22T01:17:15.574Z,0.75
2022-10-22T01:20:03.124Z,0.75
2022-10-22T01:22:40.605Z,0.80
2022-10-22T01:25:18.045Z,0.52
2022-10-22T01:27:47.751Z,0.60
2022-10-22T01:30:15.921Z,0.85
2022-10-22T01:32:52.303Z,0.57
2022-10-22T01:35:24.489Z,0.88
2022-10-22T01:37:56.099Z,0.75
2022-10-22T01:40:23.851Z,0.90
2022-10-22T01:43:02.743Z,0.50
2022-10-22T01:45:33.604Z,0.77
2022-10-22T01:48:19.518Z,0.80
2022-10-22T01:50:46.032Z,0.60
2022-10-22T01:53:46.634Z,0.73
2022-10-22T01:56:37.863Z,0.68
2022-10-22T01:59:56.882Z,0.70
2022-10-22T02:02:43.514Z,0.70
2022-10-22T02:05:18.427Z,0.60
2022-10-22T02:08:08.882Z,0.68
2022-10-22T02:10:41.126Z,0.60
2022-10-22T02:13:12.385Z,0.80
2022-10-22T02:15:44.526Z,0.60
2022-10-22T02:18:11.952Z,0.70
2022-10-22T02:20:41.681Z,1.00
2022-10-22T02:23:09.961Z,0.88
2022-10-22T02:25:40.474Z,0.70
2022-10-22T02:28:17.355Z,0.70
2022-10-22T02:30:49.033Z,0.82
2022-10-22T02:33:21.950Z,0.82
2022-10-22T02:35:49.854Z,1.00
2022-10-22T02:38:18.858Z,0.70
2022-10-22T02:40:47.338Z,0.88
2022-10-22T02:43:14.168Z,0.80
2022-10-22T02:45:40.667Z,0.93
2022-10-22T02:48:07.536Z,0.88
2022-10-22T02:50:34.114Z,0.70
2022-10-22T02:53:00.629Z,1.00
2022-10-22T02:55:35.757Z,1.35
2022-10-22T02:58:02.302Z,1.10
2022-10-22T03:00:28.936Z,1.20
2022-10-22T03:02:55.641Z,1.00
2022-10-22T03:05:22.119Z,1.20
2022-10-22T03:07:50.707Z,0.90
2022-10-22T03:10:17.486Z,1.15
2022-10-22T03:12:44.238Z,1.00
2022-10-22T03:15:10.905Z,1.10
2022-10-22T03:17:39.438Z,1.10
2022-10-22T03:20:08.454Z,1.10
2022-10-22T03:22:39.355Z,1.17
2022-10-22T03:25:10.658Z,1.27
2022-10-22T03:27:40.443Z,1.10
2022-10-22T03:30:08.271Z,1.20
2022-10-22T03:32:34.910Z,1.20
2022-10-22T03:35:01.434Z,1.17
2022-10-22T03:37:28.193Z,0.90
2022-10-22T03:39:55.524Z,1.10
2022-10-22T03:42:22.674Z,1.05
2022-10-22T03:44:49.334Z,1.10
2022-10-22T03:47:17.609Z,1.27
2022-10-22T03:49:46.041Z,1.10
2022-10-22T03:52:14.487Z,1.13
2022-10-22T03:54:42.573Z,1.30
2022-10-22T03:57:10.189Z,1.45
2022-10-22T03:59:41.960Z,1.48
2022-10-22T04:02:08.891Z,1.52
2022-10-22T04:04:36.132Z,1.40
2022-10-22T04:07:03.209Z,1.60
2022-10-22T04:09:35.411Z,1.98
2022-10-22T04:12:02.298Z,1.85
2022-10-22T04:14:28.783Z,1.85
2022-10-22T04:16:57.355Z,1.90
2022-10-22T04:19:23.879Z,1.77
2022-10-22T04:21:50.691Z,2.28
2022-10-22T04:24:17.324Z,2.15
2022-10-22T04:26:43.843Z,2.30
2022-10-22T04:29:13.592Z,2.90
2022-10-22T04:31:42.828Z,2.75
2022-10-22T04:34:11.314Z,3.13
2022-10-22T04:36:37.806Z,2.85
2022-10-22T04:39:05.492Z,2.80
2022-10-22T04:41:34.422Z,2.38
2022-10-22T04:44:01.314Z,2.88
2022-10-22T04:46:30.721Z,2.63
2022-10-22T04:48:57.919Z,3.00
2022-10-22T04:51:26.900Z,3.05
2022-10-22T04:53:55.538Z,3.50
2022-10-22T04:56:25.138Z,3.20
2022-10-22T04:59:03.970Z,2.83
2022-10-22T05:01:39.976Z,1.85
2022-10-22T05:04:14.441Z,1.95
2022-10-22T05:06:42.945Z,1.60
2022-10-22T05:09:15.880Z,1.63
2022-10-22T05:11:46.410Z,1.48
2022-10-22T05:14:13.337Z,1.52
2022-10-22T05:16:40.383Z,2.00
2022-10-22T05:19:07.945Z,1.95
2022-10-22T05:21:34.942Z,1.70
2022-10-22T05:24:09.284Z,1.60
2022-10-22T05:26:35.796Z,1.75
2022-10-22T05:29:02.310Z,1.55
2022-10-22T05:31:29.181Z,1.50
2022-10-22T05:34:00.190Z,1.50
2022-10-22T05:36:26.705Z,2.38
2022-10-22T05:38:55.344Z,1.90
2022-10-22T05:41:24.478Z,1.80
2022-10-22T05:43:51.568Z,2.00
2022-10-22T05:46:23.007Z,1.77
2022-10-22T05:48:56.067Z,1.90
2022-10-22T05:51:23.126Z,1.92
2022-10-22T05:53:55.033Z,2.00
2022-10-22T05:56:22.715Z,2.20
2022-10-22T05:58:49.536Z,2.30
2022-10-22T06:01:19.616Z,1.90
2022-10-22T06:03:47.214Z,2.03
2022-10-22T06:06:47.777Z,1.80
2022-10-22T06:09:30.853Z,2.28
2022-10-22T06:11:58.165Z,1.88
2022-10-22T06:14:25.201Z,1.80
2022-10-22T06:16:52.117Z,1.88
2022-10-22T06:19:21.053Z,1.88
2022-10-22T06:21:48.436Z,2.10
2022-10-22T06:24:17.388Z,2.00
2022-10-22T06:26:44.299Z,2.20
2022-10-22T06:29:11.335Z,2.20
2022-10-22T06:31:37.862Z,1.90
2022-10-22T06:34:20.214Z,2.60
2022-10-22T06:36:47.417Z,2.65
2022-10-22T06:39:17.047Z,2.20
2022-10-22T06:41:43.777Z,2.85
2022-10-22T06:44:19.596Z,2.45
2022-10-22T06:49:14.690Z,2.03
2022-10-22T06:51:41.405Z,2.38
2022-10-22T06:54:10.587Z,2.60
2022-10-22T06:56:37.098Z,2.40
2022-10-22T06:59:04.209Z,2.33
2022-10-22T07:01:34.582Z,2.25
2022-10-22T07:04:01.538Z,2.63
2022-10-22T07:06:29.242Z,2.80
2022-10-22T07:09:02.013Z,3.72
2022-10-22T07:11:31.017Z,3.00
2022-10-22T07:13:59.087Z,3.08
2022-10-22T07:16:32.147Z,2.85
2022-10-22T07:18:59.727Z,2.65
2022-10-22T07:21:26.231Z,2.60
2022-10-22T07:23:57.437Z,3.13
2022-10-22T07:26:28.540Z,3.80
2022-10-22T07:28:57.168Z,3.03
2022-10-22T07:31:29.293Z,3.60
2022-10-22T07:33:56.135Z,3.67
2022-10-22T07:36:24.877Z,2.95
2022-10-22T07:38:58.156Z,2.80
2022-10-22T07:41:25.647Z,3.25
2022-10-22T07:43:52.275Z,3.30
2022-10-22T07:46:19.931Z,2.83
2022-10-22T07:48:48.729Z,3.50
2022-10-22T07:51:15.876Z,2.70
2022-10-22T07:53:42.725Z,2.40
2022-10-22T07:56:09.426Z,2.15
2022-10-22T07:58:36.530Z,2.28
2022-10-22T08:01:08.429Z,1.88
2022-10-22T08:03:35.538Z,1.75
2022-10-22T08:06:02.700Z,1.88
2022-10-22T08:08:42.080Z,1.90
2022-10-22T08:11:10.102Z,1.90
2022-10-22T08:13:37.492Z,1.80
2022-10-22T08:16:06.114Z,1.50
2022-10-22T08:18:32.622Z,1.65
2022-10-22T08:20:59.221Z,1.77
2022-10-22T08:23:28.692Z,1.70
2022-10-22T08:25:56.685Z,1.90
2022-10-22T08:28:23.138Z,2.10
2022-10-22T08:30:51.586Z,1.85
2022-10-22T08:33:18.213Z,1.70
2022-10-22T08:35:49.721Z,1.73
2022-10-22T08:38:16.687Z,1.75
2022-10-22T08:40:50.148Z,2.17
2022-10-22T08:43:37.022Z,2.30
2022-10-22T08:46:16.481Z,1.92
2022-10-22T08:48:47.543Z,1.98
2022-10-22T08:51:21.382Z,2.10
2022-10-22T08:54:05.347Z,1.95
2022-10-22T08:56:34.994Z,1.52
2022-10-22T08:59:11.378Z,1.48
2022-10-22T09:01:46.143Z,1.23
2022-10-22T09:04:36.508Z,1.38
2022-10-22T09:07:04.979Z,0.90
2022-10-22T09:09:47.019Z,1.08
2022-10-22T09:12:20.215Z,1.00
2022-10-22T09:14:49.435Z,0.90
2022-10-22T09:17:29.564Z,1.52
2022-10-22T09:20:26.357Z,0.90
2022-10-22T09:23:16.835Z,1.08
2022-10-22T09:25:47.152Z,0.85
2022-10-22T09:28:15.984Z,0.82
2022-10-22T09:30:43.439Z,1.00
2022-10-22T09:33:10.054Z,0.60
2022-10-22T09:35:50.908Z,0.70
2022-10-22T09:38:23.445Z,0.90
2022-10-22T09:40:53.130Z,0.65
2022-10-22T09:43:20.176Z,0.68
2022-10-22T09:45:49.739Z,0.68
2022-10-22T09:48:30.574Z,0.70
2022-10-22T09:51:41.648Z,0.45
2022-10-22T09:54:23.593Z,0.43
2022-10-22T09:57:05.640Z,0.80
2022-10-22T09:59:39.531Z,0.63
2022-10-22T10:02:43.724Z,0.82
2022-10-22T10:05:20.028Z,0.80
2022-10-22T10:07:50.331Z,0.70
2022-10-22T10:10:37.113Z,0.50
2022-10-22T10:13:19.647Z,0.70
2022-10-22T10:16:20.961Z,0.63
2022-10-22T10:19:13.565Z,0.60
2022-10-22T10:22:00.020Z,0.63
2022-10-22T10:24:34.389Z,0.55
2022-10-22T10:27:20.215Z,0.70
2022-10-22T10:29:55.990Z,0.90
2022-10-22T10:32:46.386Z,0.63
2022-10-22T10:35:25.695Z,0.90
2022-10-22T10:38:03.975Z,0.70
2022-10-22T10:40:39.832Z,0.70
2022-10-22T10:43:29.599Z,0.50
2022-10-22T10:46:21.208Z,0.50
2022-10-22T10:48:56.599Z,0.70
2022-10-22T10:54:16.729Z,0.40
2022-10-22T10:56:58.695Z,0.50
2022-10-22T10:59:44.112Z,0.50
2022-10-22T11:02:29.465Z,0.75
2022-10-22T11:05:23.328Z,0.52
2022-10-22T11:07:59.700Z,0.60
2022-10-22T11:10:36.549Z,0.55
2022-10-22T11:13:31.045Z,0.50
2022-10-22T11:16:06.976Z,0.68
2022-10-22T11:18:48.213Z,0.80
2022-10-22T11:21:22.797Z,0.60
2022-10-22T11:24:49.212Z,0.87
2022-10-22T11:27:22.716Z,0.65
2022-10-22T11:29:59.412Z,0.75
2022-10-22T11:32:28.005Z,0.70
2022-10-22T11:35:03.206Z,0.40
2022-10-22T11:37:34.941Z,0.40
2022-10-22T11:40:11.022Z,0.70
2022-10-22T11:42:43.306Z,1.00
2022-10-22T11:45:15.564Z,0.68
2022-10-22T11:47:53.101Z,0.85
2022-10-22T11:50:45.465Z,0.65
2022-10-22T11:53:14.713Z,0.63
2022-10-22T11:55:50.884Z,0.50
2022-10-22T11:58:42.235Z,0.45
2022-10-22T12:01:13.299Z,0.60
2022-10-22T12:04:04.074Z,0.60
2022-10-22T12:06:56.523Z,0.73
2022-10-22T12:09:26.687Z,0.80
2022-10-22T12:12:03.453Z,0.55
2022-10-22T12:14:40.773Z,0.60
2022-10-22T12:17:15.654Z,0.60
2022-10-22T12:19:48.961Z,0.60
2022-10-22T12:22:21.045Z,0.80
2022-10-22T12:24:51.760Z,0.70
2022-10-22T12:27:30.143Z,0.52
2022-10-22T12:29:59.128Z,0.80
2022-10-22T12:32:40.510Z,0.70
2022-10-22T12:35:17.672Z,0.60
2022-10-22T12:37:50.760Z,0.77
2022-10-22T12:40:20.334Z,0.77
2022-10-22T12:42:58.746Z,0.45
2022-10-22T12:45:34.317Z,0.65
2022-10-22T12:50:38.345Z,0.60
2022-10-22T12:53:07.103Z,0.60
2022-10-22T12:55:34.533Z,0.50
2022-10-22T12:58:07.373Z,0.50
2022-10-22T13:00:35.471Z,0.60
2022-10-22T13:03:06.541Z,0.70
2022-10-22T13:05:43.299Z,0.63
2022-10-22T13:08:12.564Z,0.50
2022-10-22T13:10:41.508Z,0.80
2022-10-22T13:13:42.766Z,0.57
2022-10-22T13:16:25.785Z,0.75
2022-10-22T13:18:53.133Z,0.32
2022-10-22T13:21:29.676Z,0.55
2022-10-22T13:24:03.436Z,0.65
2022-10-22T13:26:34.010Z,0.52
2022-10-22T13:29:01.453Z,0.50
2022-10-22T13:31:33.631Z,0.50
2022-10-22T13:34:09.784Z,0.70
2022-10-22T13:36:38.642Z,0.65
2022-10-22T13:39:08.028Z,0.65
2022-10-22T13:44:12.828Z,0.68
2022-10-22T13:46:42.913Z,0.70
2022-10-22T13:49:23.610Z,0.70
2022-10-22T13:51:51.356Z,0.60
2022-10-22T13:54:23.822Z,0.80
2022-10-22T13:56:50.548Z,0.60
2022-10-22T13:59:19.767Z,0.60
2022-10-22T14:01:49.400Z,0.70
2022-10-22T14:04:17.645Z,0.65
2022-10-22T14:06:44.428Z,0.60
2022-10-22T14:09:15.152Z,0.90
2022-10-22T14:11:42.097Z,0.70
2022-10-22T14:14:09.236Z,0.60
2022-10-22T14:16:37.652Z,0.68
2022-10-22T14:19:07.346Z,0.52
2022-10-22T14:21:37.768Z,0.57
2022-10-22T14:24:07.073Z,0.60
2022-10-22T14:26:42.572Z,0.55
2022-10-22T14:29:10.342Z,0.60
2022-10-22T14:34:12.481Z,0.80
2022-10-22T14:36:39.086Z,0.80
2022-10-22T14:39:07.871Z,0.70
2022-10-22T14:41:36.493Z,0.63
2022-10-22T14:44:03.158Z,0.75
2022-10-22T14:46:29.643Z,0.50
2022-10-22T14:49:07.573Z,0.50
2022-10-22T14:51:36.792Z,0.77
2022-10-22T14:54:06.780Z,0.70
2022-10-22T14:56:33.309Z,0.82
2022-10-22T14:58:59.853Z,0.73
2022-10-22T15:01:26.361Z,0.73
2022-10-22T15:03:52.879Z,0.70
2022-10-22T15:06:23.865Z,0.70
2022-10-22T15:08:50.874Z,1.00
2022-10-22T15:11:19.637Z,0.82
2022-10-22T15:13:46.136Z,0.80
2022-10-22T15:16:15.522Z,0.80
2022-10-22T15:18:44.728Z,0.90
2022-10-22T15:21:20.506Z,0.88
2022-10-22T15:23:47.358Z,0.60
2022-10-22T15:26:14.692Z,0.70
2022-10-22T15:28:41.714Z,0.70
2022-10-22T15:31:08.508Z,0.80
2022-10-22T15:33:34.990Z,0.82
2022-10-22T15:36:11.928Z,1.00
2022-10-22T15:38:38.571Z,0.60
2022-10-22T15:41:08.672Z,0.60
2022-10-22T15:43:35.351Z,0.60
2022-10-22T15:46:14.881Z,0.60
2022-10-22T15:48:42.171Z,0.60
2022-10-22T15:51:14.678Z,0.60
2022-10-22T15:53:41.603Z,0.70
2022-10-22T15:56:09.045Z,0.60
2022-10-22T15:58:37.814Z,0.40
2022-10-22T16:01:15.379Z,0.80
2022-10-22T16:03:42.216Z,0.60
2022-10-22T16:06:09.538Z,0.70
2022-10-22T16:08:37.232Z,0.90
2022-10-22T16:11:03.987Z,1.05
2022-10-22T16:13:31.078Z,0.70
2022-10-22T16:16:02.007Z,0.80
2022-10-22T16:18:28.574Z,1.17
2022-10-22T16:20:55.021Z,1.00
2022-10-22T16:23:21.652Z,0.95
2022-10-22T16:25:48.204Z,1.23
2022-10-22T16:28:14.858Z,1.02
2022-10-22T16:30:43.505Z,1.35
2022-10-22T16:33:11.649Z,0.88
2022-10-22T16:35:42.093Z,0.90
2022-10-22T16:38:10.935Z,1.33
2022-10-22T16:40:39.788Z,0.93
2022-10-22T16:43:06.335Z,1.15
2022-10-22T16:45:34.632Z,1.42
2022-10-22T16:50:54.853Z,1.33
2022-10-22T16:53:24.885Z,1.13
2022-10-22T16:55:51.389Z,1.13
2022-10-22T16:58:18.077Z,1.38
2022-10-22T17:00:44.629Z,1.10
2022-10-22T17:03:12.160Z,1.40
2022-10-22T17:05:43.338Z,1.00
2022-10-22T17:08:09.804Z,1.10
2022-10-22T17:10:37.419Z,1.13
2022-10-22T17:13:07.411Z,1.38
2022-10-22T17:15:33.943Z,1.40
2022-10-22T17:18:00.843Z,1.23
2022-10-22T17:20:35.086Z,1.42
2022-10-22T17:23:01.564Z,2.08
2022-10-22T17:26:02.862Z,1.30
2022-10-22T17:28:29.768Z,1.60
2022-10-22T17:31:14.794Z,1.80
2022-10-22T17:33:41.294Z,1.77
2022-10-22T17:36:10.873Z,1.73
2022-10-22T17:38:40.586Z,2.25
2022-10-22T17:41:10.408Z,1.80
2022-10-22T17:43:40.693Z,1.67
2022-10-22T17:46:12.520Z,1.20
2022-10-22T17:48:39.013Z,1.45
2022-10-22T17:51:10.335Z,1.40
2022-10-22T17:53:40.856Z,1.10
2022-10-22T17:56:10.147Z,1.73
2022-10-22T17:58:37.359Z,1.63
2022-10-22T18:01:04.656Z,1.30
2022-10-22T18:03:32.297Z,1.00
2022-10-22T18:06:07.492Z,1.30
2022-10-22T18:08:34.125Z,1.10
2022-10-22T18:11:01.197Z,1.20
2022-10-22T18:16:19.562Z,1.60
2022-10-22T18:18:50.663Z,1.52
2022-10-22T18:21:17.820Z,1.70
2022-10-22T18:23:45.067Z,1.60
2022-10-22T18:26:12.010Z,1.40
2022-10-22T18:28:38.531Z,1.70
2022-10-22T18:31:09.359Z,1.60
2022-10-22T18:33:36.938Z,1.70
2022-10-22T18:36:11.628Z,1.55
2022-10-22T18:38:38.610Z,1.40
2022-10-22T18:41:09.885Z,1.60
2022-10-22T18:43:38.551Z,1.63
2022-10-22T18:46:10.604Z,1.20
2022-10-22T18:48:37.145Z,1.20
2022-10-22T18:51:10.114Z,1.40
2022-10-22T18:53:37.632Z,1.45
2022-10-22T18:56:09.303Z,1.15
2022-10-22T18:58:42.706Z,1.25
2022-10-22T19:01:13.507Z,1.00
2022-10-22T19:03:40.392Z,1.27
2022-10-22T19:06:09.456Z,1.20
2022-10-22T19:08:37.036Z,1.58
2022-10-22T19:11:15.485Z,1.20
2022-10-22T19:13:42.840Z,1.40
2022-10-22T19:16:15.571Z,1.60
2022-10-22T19:18:44.088Z,1.85
2022-10-22T19:21:11.509Z,1.73
2022-10-22T19:23:38.004Z,1.60
2022-10-22T19:26:12.386Z,1.80
2022-10-22T19:28:39.982Z,1.58
2022-10-22T19:31:18.999Z,1.80
2022-10-22T19:33:47.991Z,2.22
2022-10-22T19:36:16.840Z,2.20
2022-10-22T19:41:21.261Z,1.90
2022-10-22T19:43:50.296Z,2.03
2022-10-22T19:46:18.220Z,1.92
2022-10-22T19:51:21.571Z,2.53
2022-10-22T19:53:49.177Z,2.30
2022-10-22T19:56:21.119Z,2.20
2022-10-22T19:58:47.954Z,2.00
2022-10-22T20:01:25.672Z,1.95
2022-10-22T20:03:54.558Z,2.05
2022-10-22T20:06:21.953Z,2.10
2022-10-22T20:08:51.120Z,2.50
2022-10-22T20:11:25.863Z,2.53
2022-10-22T20:13:54.171Z,1.90
2022-10-22T20:16:24.345Z,2.33
2022-10-22T20:18:53.665Z,2.17
2022-10-22T20:21:23.474Z,1.88
2022-10-22T20:23:54.591Z,1.95
2022-10-22T20:26:23.386Z,1.80
2022-10-22T20:28:56.505Z,1.77
2022-10-22T20:31:27.140Z,1.98
2022-10-22T20:33:56.896Z,1.70
2022-10-22T20:36:26.585Z,1.75
2022-10-22T20:38:53.294Z,1.90
2022-10-22T20:41:22.494Z,1.67
2022-10-22T20:43:51.632Z,1.30
2022-10-22T20:46:25.512Z,1.70
2022-10-22T20:48:58.265Z,1.42
2022-10-22T20:51:24.845Z,1.52
2022-10-22T20:53:51.342Z,1.60
2022-10-22T20:56:18.653Z,1.48
2022-10-22T20:58:49.084Z,1.17
2022-10-22T21:01:29.814Z,1.45
2022-10-22T21:03:56.888Z,1.52
2022-10-22T21:06:25.688Z,1.48
2022-10-22T21:08:54.261Z,1.75
2022-10-22T21:11:22.758Z,1.92
2022-10-22T21:13:50.341Z,1.90
2022-10-22T21:16:20.523Z,1.60
2022-10-22T21:18:49.659Z,1.73
2022-10-22T21:21:19.999Z,1.60
2022-10-22T21:23:48.816Z,1.85
2022-10-22T21:26:15.328Z,1.33
2022-10-22T21:28:41.861Z,1.20
2022-10-22T21:31:10.520Z,1.50
2022-10-22T21:33:39.195Z,1.67
2022-10-22T21:36:06.948Z,0.98
2022-10-22T21:38:41.650Z,1.60
2022-10-22T21:41:10.664Z,1.25
2022-10-22T21:43:40.250Z,1.30
2022-10-22T21:46:15.126Z,1.40
2022-10-22T21:48:44.246Z,1.20
2022-10-22T21:51:13.571Z,1.45
2022-10-22T21:53:41.332Z,1.40
2022-10-22T21:56:12.811Z,1.60
2022-10-22T21:58:39.323Z,1.35
2022-10-22T22:01:10.502Z,1.75
2022-10-22T22:03:37.218Z,1.70
2022-10-22T22:06:06.266Z,1.60
2022-10-22T22:08:34.399Z,1.40
2022-10-22T22:11:06.740Z,1.40
2022-10-22T22:13:34.226Z,1.50
2022-10-22T22:16:05.728Z,1.60
2022-10-22T22:18:32.659Z,1.60
2022-10-22T22:20:59.993Z,1.30
2022-10-22T22:23:35.184Z,1.80
2022-10-22T22:26:02.292Z,1.60
2022-10-22T22:28:30.440Z,1.50
2022-10-22T22:30:57.569Z,1.10
2022-10-22T22:33:24.557Z,1.55
2022-10-22T22:35:51.488Z,1.40
2022-10-22T22:38:20.321Z,1.23
2022-10-22T22:40:47.078Z,1.30
2022-10-22T22:43:13.606Z,1.42
2022-10-22T22:45:42.589Z,1.30
2022-10-22T22:48:09.085Z,1.15
2022-10-22T22:50:36.689Z,0.98
2022-10-22T22:53:05.415Z,1.20
2022-10-22T22:55:32.099Z,1.20
2022-10-22T22:57:58.962Z,1.35
2022-10-22T23:00:27.246Z,1.30
2022-10-22T23:02:55.553Z,1.17
2022-10-22T23:05:22.121Z,1.30
2022-10-22T23:07:50.882Z,1.33
2022-10-22T23:10:17.413Z,1.50
2022-10-22T23:12:44.165Z,1.17
2022-10-22T23:15:13.457Z,2.10
2022-10-22T23:17:39.975Z,1.10
2022-10-22T23:20:11.931Z,1.23
2022-10-22T23:22:40.443Z,1.30
2022-10-22T23:25:07.522Z,1.25
2022-10-22T23:27:34.005Z,1.20
2022-10-22T23:30:02.254Z,1.73
2022-10-22T23:32:31.206Z,1.42
2022-10-22T23:34:57.831Z,1.45
2022-10-22T23:37:24.510Z,1.23
2022-10-22T23:39:50.974Z,1.20
2022-10-22T23:42:17.442Z,1.45
2022-10-22T23:44:49.089Z,1.25
2022-10-22T23:47:15.581Z,1.20
2022-10-22T23:49:42.410Z,1.50
2022-10-22T23:52:11.358Z,1.38
2022-10-22T23:54:37.843Z,1.60
2022-10-22T23:57:04.378Z,1.20
2022-10-22T23:59:32.614Z,1.67
